Flight Track Log - Related Links

Times and Time Zones

All times are in EDT time to prevent confusion due to time zone crossing. See the OAE606 flight status page for this flight to view local times or setup timezone preferences in your user account.

Time Position Orientation Groundspeed Altitude Reporting Facility
EDT Latitude Longitude Course Direction KTS MPH feet Rate Location/Type
Tue 07:03:52 AM 35.7230 140.3760 151° Southeast 181 208 2,100  Level FlightAware ADS-B
Tue 07:04:17 AM 35.7020 140.3900 152° Southeast 227 261 2,600 1,745 Climbing FlightAware ADS-B
Tue 07:04:47 AM 35.6730 140.4110 150° Southeast 258 297 3,700 2,509 Climbing FlightAware ADS-B
Tue 07:05:12 AM 35.6470 140.4300 149° Southeast 275 316 4,900 2,850 Climbing FlightAware ADS-B
Tue 07:05:27 AM 35.6310 140.4420 149° Southeast 281 323 5,600 2,800 Climbing FlightAware ADS-B
Tue 07:05:57 AM 35.6000 140.4630 151° Southeast 292 336 7,000 3,164 Climbing FlightAware ADS-B
Tue 07:06:22 AM 35.5650 140.4880 150° Southeast 302 348 8,500 2,400 Climbing FlightAware ADS-B
Tue 07:06:52 AM 35.5320 140.5220 140° Southeast 323 372 9,200 873 Climbing FlightAware ADS-B
Tue 07:07:17 AM 35.5200 140.5650 109° East 321 369 9,300 109 Climbing FlightAware ADS-B
Tue 07:07:47 AM 35.5150 140.6170 97° East 315 362 9,300  Level FlightAware ADS-B
Tue 07:08:17 AM 35.5110 140.6710 95° East 323 372 9,300  Level FlightAware ADS-B
Tue 07:08:42 AM 35.5070 140.7110 97° East 322 371 9,300  Level FlightAware ADS-B
Tue 07:09:12 AM 35.5010 140.7680 97° East 324 373 9,300 300 Level FlightAware ADS-B
Tue 07:09:42 AM 35.4950 140.8230 98° East 322 371 9,600 1,200 Climbing FlightAware ADS-B
Tue 07:10:22 AM 35.4890 140.8900 96° East 351 404 10,700 1,800 Climbing FlightAware ADS-B
Tue 07:11:02 AM 35.4790 140.9830 97° East 393 452 12,000 2,047 Climbing FlightAware ADS-B
Tue 07:11:47 AM 35.4720 141.0930 94° East 435 501 13,600 2,541 Climbing FlightAware ADS-B
Tue 07:12:27 AM 35.4680 141.1970 93° East 449 517 15,600 2,800 Climbing FlightAware ADS-B
Tue 07:13:17 AM 35.4640 141.3280 92° East 461 531 17,800 2,220 Climbing FlightAware ADS-B
Tue 07:14:07 AM 35.4600 141.4550 92° East 493 567 19,300 1,943 Climbing FlightAware ADS-B
Tue 07:15:02 AM 35.4540 141.6120 93° East 511 588 21,200 1,895 Climbing FlightAware ADS-B
Tue 07:15:42 AM 35.4500 141.7180 93° East 528 608 22,300 1,263 Climbing FlightAware ADS-B
Tue 07:16:37 AM 35.4460 141.8700 92° East 536 617 23,200 1,920 Climbing FlightAware ADS-B
Tue 07:17:22 AM 35.4380 142.0390 93° East 558 642 25,500 2,475 Climbing FlightAware ADS-B
Tue 07:17:57 AM 35.4330 142.1550 93° East 573 659 26,500 1,835 Climbing FlightAware ADS-B
Tue 07:18:47 AM 35.4280 142.2910 93° East 573 659 28,100 2,200 Climbing FlightAware ADS-B
Tue 07:19:27 AM 35.4220 142.4390 93° East 570 656 29,800 2,325 Climbing FlightAware ADS-B
Tue 07:20:07 AM 35.4170 142.5740 93° East 568 654 31,200 1,906 Climbing FlightAware ADS-B
Tue 07:20:52 AM 35.4110 142.7100 93° East 565 650 32,500 1,080 Climbing FlightAware ADS-B
Tue 07:21:47 AM 35.4040 142.8890 93° East 564 649 33,000 17 Climbing FlightAware ADS-B
Tue 07:22:32 AM 35.3980 143.0250 93° East 33,000 13 Level FlightAware ADS-B
Tue 07:25:00 AM 35.3056 143.4631 104° East  Level FlightAware Approximate
Tue 07:26:00 AM 35.2677 143.6405 105° East  Level FlightAware Approximate
Tue 07:27:00 AM 35.2343 143.8197 87° East  Level FlightAware Approximate
Tue 07:28:00 AM 35.2432 144.0026 87° East  Level FlightAware Approximate
Tue 07:29:00 AM 35.2518 144.1855 87° East  Level FlightAware Approximate
Tue 07:30:00 AM 35.2601 144.3685 87° East  Level FlightAware Approximate
Tue 07:31:00 AM 35.2681 144.5515 87° East  Level FlightAware Approximate
Tue 07:32:00 AM 35.2759 144.7345 87° East  Level FlightAware Approximate
Tue 07:33:00 AM 35.2834 144.9176 87° East  Level FlightAware Approximate
Tue 07:34:00 AM 35.2906 145.1007 87° East  Level FlightAware Approximate
Tue 07:35:00 AM 35.2976 145.2838 87° East  Level FlightAware Approximate
Tue 07:36:00 AM 35.3033 145.4670 88° East  Level FlightAware Approximate
Tue 07:37:00 AM 35.3083 145.6503 88° East  Level FlightAware Approximate
Tue 07:38:00 AM 35.3130 145.8336 88° East  Level FlightAware Approximate
Tue 07:39:00 AM 35.3146 146.0168 94° East  Level FlightAware Approximate
Tue 07:40:00 AM 35.3031 146.1996 94° East  Level FlightAware Approximate
Tue 07:41:00 AM 35.2912 146.3824 94° East  Level FlightAware Approximate
Tue 07:42:00 AM 35.2792 146.5651 95° East  Level FlightAware Approximate
Tue 07:43:00 AM 35.2668 146.7477 95° East  Level FlightAware Approximate
Tue 07:44:00 AM 35.2542 146.9303 95° East  Level FlightAware Approximate
Tue 07:45:00 AM 35.2413 147.1129 95° East  Level FlightAware Approximate
Tue 07:46:00 AM 35.2281 147.2954 95° East  Level FlightAware Approximate
Tue 07:47:00 AM 35.2146 147.4778 95° East  Level FlightAware Approximate
Tue 07:48:00 AM 35.2009 147.6602 95° East  Level FlightAware Approximate
Tue 07:49:00 AM 35.1869 147.8425 95° East  Level FlightAware Approximate
Tue 07:50:00 AM 35.1726 148.0247 95° East  Level FlightAware Approximate
Tue 07:51:00 AM 35.1581 148.2069 96° East  Level FlightAware Approximate
Tue 07:52:00 AM 35.1432 148.3890 96° East  Level FlightAware Approximate
Tue 07:53:00 AM 35.1282 148.5710 96° East  Level FlightAware Approximate
Tue 07:54:00 AM 35.1128 148.7530 96° East  Level FlightAware Approximate
Tue 07:55:00 AM 35.0971 148.9349 96° East  Level FlightAware Approximate
Tue 07:56:00 AM 35.0812 149.1167 96° East  Level FlightAware Approximate
Tue 07:57:00 AM 35.0650 149.2985 96° East  Level FlightAware Approximate
Tue 07:58:00 AM 35.0486 149.4802 96° East  Level FlightAware Approximate
Tue 07:59:00 AM 35.0319 149.6618 96° East  Level FlightAware Approximate
Tue 08:00:00 AM 35.0149 149.8434 96° East  Level FlightAware Approximate
Tue 08:01:00 AM 34.9962 150.0246 101° East  Level FlightAware Approximate
Tue 08:02:00 AM 34.9682 150.2039 101° East  Level FlightAware Approximate
Tue 08:03:00 AM 34.9399 150.3832 101° East  Level FlightAware Approximate
Tue 08:04:00 AM 34.9113 150.5624 101° East  Level FlightAware Approximate
Tue 08:05:00 AM 34.8825 150.7414 101° East  Level FlightAware Approximate
Tue 08:06:00 AM 34.8535 150.9203 101° East  Level FlightAware Approximate
Tue 08:07:00 AM 34.8241 151.0991 101° East  Level FlightAware Approximate
Tue 08:08:00 AM 34.7945 151.2777 101° East  Level FlightAware Approximate
Tue 08:09:00 AM 34.7646 151.4563 101° East  Level FlightAware Approximate
Tue 08:10:00 AM 34.7345 151.6346 102° East  Level FlightAware Approximate
Tue 08:11:00 AM 34.7042 151.8129 102° East  Level FlightAware Approximate
Tue 08:12:00 AM 34.6735 151.9910 102° East  Level FlightAware Approximate
Tue 08:13:00 AM 34.6426 152.1690 102° East  Level FlightAware Approximate
Tue 08:14:00 AM 34.6115 152.3469 102° East  Level FlightAware Approximate
Tue 08:15:00 AM 34.5801 152.5246 102° East  Level FlightAware Approximate
Tue 08:16:00 AM 34.5484 152.7022 102° East  Level FlightAware Approximate
Tue 08:17:00 AM 34.5164 152.8797 102° East  Level FlightAware Approximate
Tue 08:18:00 AM 34.4843 153.0570 102° East  Level FlightAware Approximate
Tue 08:19:00 AM 34.4518 153.2342 102° East  Level FlightAware Approximate
Tue 08:20:00 AM 34.4191 153.4112 103° East  Level FlightAware Approximate
Tue 08:21:00 AM 34.3862 153.5881 103° East  Level FlightAware Approximate
Tue 08:22:00 AM 34.3530 153.7649 103° East  Level FlightAware Approximate
Tue 08:23:00 AM 34.3195 153.9415 103° East  Level FlightAware Approximate
Tue 08:24:00 AM 34.2858 154.1180 103° East  Level FlightAware Approximate
Tue 08:25:00 AM 34.2519 154.2944 103° East  Level FlightAware Approximate
Tue 08:26:00 AM 34.2176 154.4706 103° East  Level FlightAware Approximate
Tue 08:27:00 AM 34.1832 154.6466 103° East  Level FlightAware Approximate
Tue 08:28:00 AM 34.1484 154.8225 103° East  Level FlightAware Approximate
Tue 08:29:00 AM 34.1135 154.9983 103° East  Level FlightAware Approximate
Tue 08:30:00 AM 34.0783 155.1739 104° East  Level FlightAware Approximate
Tue 08:31:00 AM 34.0428 155.3494 104° East  Level FlightAware Approximate
Tue 08:32:00 AM 34.0071 155.5247 104° East  Level FlightAware Approximate
Tue 08:33:00 AM 33.9711 155.6999 104° East  Level FlightAware Approximate
Tue 08:34:00 AM 33.9349 155.8749 104° East  Level FlightAware Approximate
Tue 08:35:00 AM 33.8984 156.0498 104° East  Level FlightAware Approximate
Tue 08:36:00 AM 33.8617 156.2245 104° East  Level FlightAware Approximate
Tue 08:37:00 AM 33.8247 156.3991 104° East  Level FlightAware Approximate
Tue 08:38:00 AM 33.7876 156.5735 104° East  Level FlightAware Approximate
Tue 08:39:00 AM 33.7501 156.7478 104° East  Level FlightAware Approximate
Tue 08:40:00 AM 33.7124 156.9219 105° East  Level FlightAware Approximate
Tue 08:41:00 AM 33.6745 157.0959 105° East  Level FlightAware Approximate
Tue 08:42:00 AM 33.6363 157.2697 105° East  Level FlightAware Approximate
Tue 08:43:00 AM 33.5979 157.4434 105° East  Level FlightAware Approximate
Tue 08:44:00 AM 33.5592 157.6169 105° East  Level FlightAware Approximate
Tue 08:45:00 AM 33.5203 157.7903 105° East  Level FlightAware Approximate
Tue 08:46:00 AM 33.4812 157.9635 105° East  Level FlightAware Approximate
Tue 08:47:00 AM 33.4418 158.1365 105° East  Level FlightAware Approximate
Tue 08:48:00 AM 33.4021 158.3094 105° East  Level FlightAware Approximate
Tue 08:49:00 AM 33.3623 158.4821 105° East  Level FlightAware Approximate
Tue 08:50:00 AM 33.3222 158.6546 105° East  Level FlightAware Approximate
Tue 08:51:00 AM 33.2818 158.8271 106° East  Level FlightAware Approximate
Tue 08:52:00 AM 33.2412 158.9993 106° East  Level FlightAware Approximate
Tue 08:53:00 AM 33.2004 159.1714 106° East  Level FlightAware Approximate
Tue 08:54:00 AM 33.1594 159.3433 106° East  Level FlightAware Approximate
Tue 08:55:00 AM 33.1181 159.5151 106° East  Level FlightAware Approximate
Tue 08:56:00 AM 33.0765 159.6867 106° East  Level FlightAware Approximate
Tue 08:57:00 AM 33.0348 159.8581 106° East  Level FlightAware Approximate
Tue 08:58:00 AM 32.9952 160.0301 101° East  Level FlightAware Approximate
Tue 08:59:00 AM 32.9672 160.2053 101° East  Level FlightAware Approximate
Tue 09:00:00 AM 32.9388 160.3804 101° East  Level FlightAware Approximate
Tue 09:01:00 AM 32.9103 160.5554 101° East  Level FlightAware Approximate
Tue 09:02:00 AM 32.8815 160.7303 101° East  Level FlightAware Approximate
Tue 09:03:00 AM 32.8525 160.9051 101° East  Level FlightAware Approximate
Tue 09:04:00 AM 32.8232 161.0797 101° East  Level FlightAware Approximate
Tue 09:05:00 AM 32.7937 161.2543 101° East  Level FlightAware Approximate
Tue 09:06:00 AM 32.7639 161.4287 101° East  Level FlightAware Approximate
Tue 09:07:00 AM 32.7339 161.6030 102° East  Level FlightAware Approximate
Tue 09:08:00 AM 32.7037 161.7771 102° East  Level FlightAware Approximate
Tue 09:09:00 AM 32.6732 161.9512 102° East  Level FlightAware Approximate
Tue 09:10:00 AM 32.6424 162.1252 102° East  Level FlightAware Approximate
Tue 09:11:00 AM 32.6115 162.2990 102° East  Level FlightAware Approximate
Tue 09:12:00 AM 32.5803 162.4727 102° East  Level FlightAware Approximate
Tue 09:13:00 AM 32.5488 162.6463 102° East  Level FlightAware Approximate
Tue 09:14:00 AM 32.5171 162.8197 102° East  Level FlightAware Approximate
Tue 09:15:00 AM 32.4852 162.9931 102° East  Level FlightAware Approximate
Tue 09:16:00 AM 32.4531 163.1663 102° East  Level FlightAware Approximate
Tue 09:17:00 AM 32.4207 163.3394 102° East  Level FlightAware Approximate
Tue 09:18:00 AM 32.3880 163.5124 103° East  Level FlightAware Approximate
Tue 09:19:00 AM 32.3552 163.6852 103° East  Level FlightAware Approximate
Tue 09:20:00 AM 32.3221 163.8579 103° East  Level FlightAware Approximate
Tue 09:21:00 AM 32.2887 164.0305 103° East  Level FlightAware Approximate
Tue 09:22:00 AM 32.2552 164.2030 103° East  Level FlightAware Approximate
Tue 09:23:00 AM 32.2214 164.3753 103° East  Level FlightAware Approximate
Tue 09:24:00 AM 32.1873 164.5475 103° East  Level FlightAware Approximate
Tue 09:25:00 AM 32.1530 164.7196 103° East  Level FlightAware Approximate
Tue 09:26:00 AM 32.1185 164.8916 103° East  Level FlightAware Approximate
Tue 09:27:00 AM 32.0842 165.0635 103° East  Level FlightAware Approximate
Tue 09:28:00 AM 32.0500 165.2354 103° East  Level FlightAware Approximate
Tue 09:29:00 AM 32.0156 165.4072 103° East  Level FlightAware Approximate
Tue 09:30:00 AM 31.9810 165.5788 103° East  Level FlightAware Approximate
Tue 09:31:00 AM 31.9461 165.7504 103° East  Level FlightAware Approximate
Tue 09:32:00 AM 31.9111 165.9218 104° East  Level FlightAware Approximate
Tue 09:33:00 AM 31.8758 166.0930 104° East  Level FlightAware Approximate
Tue 09:34:00 AM 31.8402 166.2641 104° East  Level FlightAware Approximate
Tue 09:35:00 AM 31.8044 166.4352 104° East  Level FlightAware Approximate
Tue 09:36:00 AM 31.7684 166.6060 104° East  Level FlightAware Approximate
Tue 09:37:00 AM 31.7322 166.7768 104° East  Level FlightAware Approximate
Tue 09:38:00 AM 31.6958 166.9474 104° East  Level FlightAware Approximate
Tue 09:39:00 AM 31.6591 167.1178 104° East  Level FlightAware Approximate
Tue 09:40:00 AM 31.6222 167.2882 104° East  Level FlightAware Approximate
Tue 09:41:00 AM 31.5851 167.4584 104° East  Level FlightAware Approximate
Tue 09:42:00 AM 31.5477 167.6284 104° East  Level FlightAware Approximate
Tue 09:43:00 AM 31.5101 167.7983 105° East  Level FlightAware Approximate
Tue 09:44:00 AM 31.4723 167.9681 105° East  Level FlightAware Approximate
Tue 09:45:00 AM 31.4343 168.1378 105° East  Level FlightAware Approximate
Tue 09:46:00 AM 31.3960 168.3073 105° East  Level FlightAware Approximate
Tue 09:47:00 AM 31.3575 168.4767 105° East  Level FlightAware Approximate
Tue 09:48:00 AM 31.3188 168.6459 105° East  Level FlightAware Approximate
Tue 09:49:00 AM 31.2799 168.8150 105° East  Level FlightAware Approximate
Tue 09:50:00 AM 31.2408 168.9839 105° East  Level FlightAware Approximate
Tue 09:50:34 AM 31.0000 170.0000 100° East 543 625 35,000  Level Oakland Oceanic (ODAPS)
Tue 09:51:00 AM 31.2014 169.1527 105° East  Level FlightAware Approximate
Tue 09:52:00 AM 31.1618 169.3214 105° East  Level FlightAware Approximate
Tue 09:53:00 AM 31.1220 169.4899 105° East  Level FlightAware Approximate
Tue 09:54:00 AM 31.0820 169.6583 105° East  Level FlightAware Approximate
Tue 09:55:00 AM 31.0417 169.8266 106° East  Level FlightAware Approximate
Tue 09:56:00 AM 30.7738 171.3788 101° East 543 625 35,000  Level FlightAware Transoceanic
Tue 09:57:00 AM 30.7445 171.5507 101° East 543 625 35,000  Level FlightAware Transoceanic
Tue 09:58:00 AM 30.7150 171.7225 101° East 543 625 35,000  Level FlightAware Transoceanic
Tue 09:59:00 AM 30.6853 171.8942 101° East 543 625 35,000  Level FlightAware Transoceanic
Tue 10:00:00 AM 30.6553 172.0658 102° East 543 625 35,000  Level FlightAware Transoceanic
Tue 10:01:00 AM 30.6251 172.2372 102° East 543 625 35,000  Level FlightAware Transoceanic
Tue 10:02:00 AM 30.5947 172.4086 102° East 543 625 35,000  Level FlightAware Transoceanic
Tue 10:03:00 AM 30.5640 172.5798 102° East 543 625 35,000  Level FlightAware Transoceanic
Tue 10:04:00 AM 30.5331 172.7510 102° East 543 625 35,000  Level FlightAware Transoceanic
Tue 10:05:00 AM 30.5021 172.9220 102° East 543 625 35,000  Level FlightAware Transoceanic
Tue 10:06:00 AM 30.4707 173.0930 102° East 543 625 35,000  Level FlightAware Transoceanic
Tue 10:07:00 AM 30.4392 173.2638 102° East 543 625 35,000  Level FlightAware Transoceanic
Tue 10:08:00 AM 30.4074 173.4345 102° East 543 625 35,000  Level FlightAware Transoceanic
Tue 10:09:00 AM 30.3754 173.6051 102° East 543 625 35,000  Level FlightAware Transoceanic
Tue 10:10:00 AM 30.3432 173.7755 102° East 543 625 35,000  Level FlightAware Transoceanic
Tue 10:11:00 AM 30.3108 173.9459 102° East 543 625 35,000  Level FlightAware Transoceanic
Tue 10:12:00 AM 30.2782 174.1162 103° East 543 625 35,000  Level FlightAware Transoceanic
Tue 10:13:00 AM 30.2453 174.2863 103° East 543 625 35,000  Level FlightAware Transoceanic
Tue 10:14:00 AM 30.2122 174.4563 103° East 543 625 35,000  Level FlightAware Transoceanic
Tue 10:15:00 AM 30.1789 174.6262 103° East 543 625 35,000  Level FlightAware Transoceanic
Tue 10:16:00 AM 30.1454 174.7960 103° East 543 625 35,000  Level FlightAware Transoceanic
Tue 10:17:00 AM 30.1116 174.9657 103° East 543 625 35,000  Level FlightAware Transoceanic
Tue 10:18:00 AM 30.0777 175.1353 103° East 543 625 35,000  Level FlightAware Transoceanic
Tue 10:19:00 AM 30.0435 175.3047 103° East 543 625 35,000  Level FlightAware Transoceanic
Tue 10:20:00 AM 30.0091 175.4741 103° East 543 625 35,000  Level FlightAware Transoceanic
Tue 10:21:00 AM 29.9745 175.6433 103° East 543 625 35,000  Level FlightAware Transoceanic
Tue 10:22:00 AM 29.9396 175.8124 103° East 543 625 35,000  Level FlightAware Transoceanic
Tue 10:23:00 AM 29.9046 175.9814 103° East 543 625 35,000  Level FlightAware Transoceanic
Tue 10:24:00 AM 29.8693 176.1502 104° East 543 625 35,000  Level FlightAware Transoceanic
Tue 10:25:00 AM 29.8339 176.3189 104° East 543 625 35,000  Level FlightAware Transoceanic
Tue 10:26:00 AM 29.7982 176.4876 104° East 543 625 35,000  Level FlightAware Transoceanic
Tue 10:27:00 AM 29.7623 176.6561 104° East 543 625 35,000  Level FlightAware Transoceanic
Tue 10:28:00 AM 29.7261 176.8244 104° East 543 625 35,000  Level FlightAware Transoceanic
Tue 10:29:00 AM 29.6898 176.9927 104° East 543 625 35,000  Level FlightAware Transoceanic
Tue 10:30:00 AM 29.6533 177.1608 104° East 543 625 35,000  Level FlightAware Transoceanic
Tue 10:31:00 AM 29.6165 177.3288 104° East 543 625 35,000  Level FlightAware Transoceanic
Tue 10:32:00 AM 29.5795 177.4967 104° East 543 625 35,000  Level FlightAware Transoceanic
Tue 10:33:00 AM 29.5424 177.6645 104° East 543 625 35,000  Level FlightAware Transoceanic
Tue 10:34:00 AM 29.5050 177.8321 104° East 543 625 35,000  Level FlightAware Transoceanic
Tue 10:35:00 AM 29.4674 177.9996 104° East 543 625 35,000  Level FlightAware Transoceanic
Tue 10:36:00 AM 29.4296 178.1670 105° East 543 625 35,000  Level FlightAware Transoceanic
Tue 10:37:00 AM 29.3916 178.3343 105° East 543 625 35,000  Level FlightAware Transoceanic
Tue 10:38:00 AM 29.3533 178.5014 105° East 543 625 35,000  Level FlightAware Transoceanic
Tue 10:39:00 AM 29.3149 178.6685 105° East 543 625 35,000  Level FlightAware Transoceanic
Tue 10:40:00 AM 29.2763 178.8353 105° East 543 625 35,000  Level FlightAware Transoceanic
Tue 10:41:00 AM 29.2374 179.0021 105° East 543 625 35,000  Level FlightAware Transoceanic
Tue 10:42:00 AM 29.1984 179.1687 105° East 543 625 35,000  Level FlightAware Transoceanic
Tue 10:43:00 AM 29.1591 179.3353 105° East 543 625 35,000  Level FlightAware Transoceanic
Tue 10:44:00 AM 29.1196 179.5016 105° East 543 625 35,000  Level FlightAware Transoceanic
Tue 10:45:00 AM 29.0800 179.6679 105° East 543 625 35,000  Level FlightAware Transoceanic
Tue 10:46:00 AM 29.0401 179.8340 105° East 543 625 35,000  Level FlightAware Transoceanic
Tue 10:47:00 AM 29.0000 -180.0000 100° East 543 625 35,000  Level FlightAware Transoceanic
Tue 10:48:00 AM 28.9743 -179.8263 100° East 543 625 35,000  Level FlightAware Transoceanic
Tue 10:48:32 AM 29.0000 -180.0000 100° East 555 639 35,000  Level Oakland Oceanic (ODAPS)
Tue 10:49:00 AM 28.9485 -179.6527 100° East 543 625 35,000  Level FlightAware Transoceanic
Tue 10:50:00 AM 28.9223 -179.4792 100° East 543 625 35,000  Level FlightAware Transoceanic
Tue 10:51:00 AM 28.8960 -179.3057 100° East 543 625 35,000  Level FlightAware Transoceanic
Tue 10:52:00 AM 28.8695 -179.1324 100° East 543 625 35,000  Level FlightAware Transoceanic
Tue 10:53:00 AM 28.8427 -178.9591 100° East 543 625 35,000  Level FlightAware Transoceanic
Tue 10:54:00 AM 28.7885 -178.6129 100° East 555 639 35,000  Level FlightAware Transoceanic
Tue 10:55:00 AM 28.7611 -178.4399 100° East 555 639 35,000  Level FlightAware Transoceanic
Tue 10:56:00 AM 28.7334 -178.2670 100° East 555 639 35,000  Level FlightAware Transoceanic
Tue 10:57:00 AM 28.7055 -178.0942 100° East 555 639 35,000  Level FlightAware Transoceanic
Tue 10:58:00 AM 28.6775 -177.9215 101° East 555 639 35,000  Level FlightAware Transoceanic
Tue 10:59:00 AM 28.6491 -177.7488 101° East 555 639 35,000  Level FlightAware Transoceanic
Tue 11:00:00 AM 28.6206 -177.5763 101° East 555 639 35,000  Level FlightAware Transoceanic
Tue 11:01:00 AM 28.5919 -177.4039 101° East 555 639 35,000  Level FlightAware Transoceanic
Tue 11:02:00 AM 28.5629 -177.2315 101° East 555 639 35,000  Level FlightAware Transoceanic
Tue 11:03:00 AM 28.5337 -177.0593 101° East 555 639 35,000  Level FlightAware Transoceanic
Tue 11:04:00 AM 28.5043 -176.8871 101° East 555 639 35,000  Level FlightAware Transoceanic
Tue 11:05:00 AM 28.4747 -176.7151 101° East 555 639 35,000  Level FlightAware Transoceanic
Tue 11:06:00 AM 28.4449 -176.5432 101° East 555 639 35,000  Level FlightAware Transoceanic
Tue 11:07:00 AM 28.4148 -176.3713 101° East 555 639 35,000  Level FlightAware Transoceanic
Tue 11:08:00 AM 28.3845 -176.1995 101° East 555 639 35,000  Level FlightAware Transoceanic
Tue 11:09:00 AM 28.3540 -176.0279 101° East 555 639 35,000  Level FlightAware Transoceanic
Tue 11:10:00 AM 28.3234 -175.8563 102° East 555 639 35,000  Level FlightAware Transoceanic
Tue 11:11:00 AM 28.2924 -175.6848 102° East 555 639 35,000  Level FlightAware Transoceanic
Tue 11:12:00 AM 28.2613 -175.5135 102° East 555 639 35,000  Level FlightAware Transoceanic
Tue 11:13:00 AM 28.2300 -175.3422 102° East 555 639 35,000  Level FlightAware Transoceanic
Tue 11:14:00 AM 28.1984 -175.1711 102° East 555 639 35,000  Level FlightAware Transoceanic
Tue 11:15:00 AM 28.1667 -175.0000 104° East 555 639 35,000  Level FlightAware Transoceanic
Tue 11:16:00 AM 28.1307 -174.8316 104° East 555 639 35,000  Level FlightAware Transoceanic
Tue 11:16:46 AM 28.1667 -175.0000 104° East 550 633 35,000  Level Oakland Oceanic (ODAPS)
Tue 11:17:00 AM 28.0945 -174.6634 104° East 555 639 35,000  Level FlightAware Transoceanic
Tue 11:18:00 AM 28.0581 -174.4953 104° East 555 639 35,000  Level FlightAware Transoceanic
Tue 11:19:00 AM 28.0215 -174.3273 104° East 555 639 35,000  Level FlightAware Transoceanic
Tue 11:20:00 AM 27.9848 -174.1593 104° East 555 639 35,000  Level FlightAware Transoceanic
Tue 11:21:00 AM 27.9478 -173.9916 104° East 555 639 35,000  Level FlightAware Transoceanic
Tue 11:22:00 AM 27.9106 -173.8239 104° East 550 633 35,000  Level FlightAware Transoceanic
Tue 11:23:00 AM 27.8732 -173.6563 104° East 550 633 35,000  Level FlightAware Transoceanic
Tue 11:24:00 AM 27.8356 -173.4889 104° East 550 633 35,000  Level FlightAware Transoceanic
Tue 11:25:00 AM 27.7978 -173.3216 104° East 550 633 35,000  Level FlightAware Transoceanic
Tue 11:26:00 AM 27.7598 -173.1543 104° East 550 633 35,000  Level FlightAware Transoceanic
Tue 11:27:00 AM 27.7215 -172.9873 105° East 550 633 35,000  Level FlightAware Transoceanic
Tue 11:28:00 AM 27.6831 -172.8203 105° East 550 633 35,000  Level FlightAware Transoceanic
Tue 11:29:00 AM 27.6445 -172.6534 105° East 550 633 35,000  Level FlightAware Transoceanic
Tue 11:30:00 AM 27.6057 -172.4867 105° East 550 633 35,000  Level FlightAware Transoceanic
Tue 11:31:00 AM 27.5667 -172.3201 105° East 550 633 35,000  Level FlightAware Transoceanic
Tue 11:32:00 AM 27.5275 -172.1536 105° East 550 633 35,000  Level FlightAware Transoceanic
Tue 11:33:00 AM 27.4881 -171.9872 105° East 550 633 35,000  Level FlightAware Transoceanic
Tue 11:34:00 AM 27.4485 -171.8209 105° East 550 633 35,000  Level FlightAware Transoceanic
Tue 11:35:00 AM 27.4087 -171.6548 105° East 550 633 35,000  Level FlightAware Transoceanic
Tue 11:36:00 AM 27.3687 -171.4888 105° East 550 633 35,000  Level FlightAware Transoceanic
Tue 11:37:00 AM 27.3285 -171.3229 105° East 550 633 35,000  Level FlightAware Transoceanic
Tue 11:38:00 AM 27.2882 -171.1571 105° East 550 633 35,000  Level FlightAware Transoceanic
Tue 11:39:00 AM 27.2476 -170.9914 105° East 550 633 35,000  Level FlightAware Transoceanic
Tue 11:40:00 AM 27.2068 -170.8259 106° East 550 633 35,000  Level FlightAware Transoceanic
Tue 11:41:00 AM 27.1658 -170.6605 106° East 550 633 35,000  Level FlightAware Transoceanic
Tue 11:42:00 AM 27.1246 -170.4952 106° East 550 633 35,000  Level FlightAware Transoceanic
Tue 11:43:00 AM 27.0833 -170.3300 106° East 550 633 35,000  Level FlightAware Transoceanic
Tue 11:44:00 AM 27.0417 -170.1649 106° East 550 633 35,000  Level FlightAware Transoceanic
Tue 11:45:00 AM 27.0000 -170.0000 114° Southeast 550 633 35,000  Level FlightAware Transoceanic
Tue 11:46:00 AM 26.9418 -169.8502 114° Southeast 550 633 35,000  Level FlightAware Transoceanic
Tue 11:47:00 AM 26.8834 -169.7005 114° Southeast 550 633 35,000  Level FlightAware Transoceanic
Tue 11:48:00 AM 26.8249 -169.5511 114° Southeast 550 633 35,000  Level FlightAware Transoceanic
Tue 11:49:00 AM 26.7662 -169.4017 114° Southeast 550 633 35,000  Level FlightAware Transoceanic
Tue 11:49:58 AM 27.0000 -170.0000 114° Southeast 536 617 35,000  Level Oakland Oceanic (ODAPS)
Tue 11:50:00 AM 26.7073 -169.2525 114° Southeast 550 633 35,000  Level FlightAware Transoceanic
Tue 11:51:00 AM 26.6483 -169.1035 114° Southeast 550 633 35,000  Level FlightAware Transoceanic
Tue 11:52:00 AM 26.5891 -168.9546 114° Southeast 550 633 35,000  Level FlightAware Transoceanic
Tue 11:53:00 AM 26.5298 -168.8059 114° Southeast 550 633 35,000  Level FlightAware Transoceanic
Tue 11:54:00 AM 26.4704 -168.6573 114° Southeast 550 633 35,000  Level FlightAware Transoceanic
Tue 11:55:00 AM 26.4107 -168.5089 114° Southeast 550 633 35,000  Level FlightAware Transoceanic
Tue 11:56:00 AM 26.3975 -168.4760 114° Southeast 536 617 35,000  Level FlightAware Transoceanic
Tue 11:57:00 AM 26.3363 -168.3244 114° Southeast 536 617 35,000  Level FlightAware Transoceanic
Tue 11:58:00 AM 26.2750 -168.1731 114° Southeast 536 617 35,000  Level FlightAware Transoceanic
Tue 11:59:00 AM 26.2136 -168.0219 114° Southeast 536 617 35,000  Level FlightAware Transoceanic
Tue 12:00:00 PM 26.1519 -167.8708 114° Southeast 536 617 35,000  Level FlightAware Transoceanic
Tue 12:01:00 PM 26.0902 -167.7200 115° Southeast 536 617 35,000  Level FlightAware Transoceanic
Tue 12:02:00 PM 26.0282 -167.5692 115° Southeast 536 617 35,000  Level FlightAware Transoceanic
Tue 12:03:00 PM 25.9662 -167.4187 115° Southeast 536 617 35,000  Level FlightAware Transoceanic
Tue 12:04:00 PM 25.9039 -167.2683 115° Southeast 536 617 35,000  Level FlightAware Transoceanic
Tue 12:05:00 PM 25.8415 -167.1180 115° Southeast 536 617 35,000  Level FlightAware Transoceanic
Tue 12:06:00 PM 25.7789 -166.9680 115° Southeast 536 617 35,000  Level FlightAware Transoceanic
Tue 12:07:00 PM 25.7162 -166.8180 115° Southeast 536 617 35,000  Level FlightAware Transoceanic
Tue 12:08:00 PM 25.6534 -166.6682 115° Southeast 536 617 35,000  Level FlightAware Transoceanic
Tue 12:09:00 PM 25.5904 -166.5186 115° Southeast 536 617 35,000  Level FlightAware Transoceanic
Tue 12:10:00 PM 25.5272 -166.3692 115° Southeast 536 617 35,000  Level FlightAware Transoceanic
Tue 12:11:00 PM 25.4639 -166.2199 115° Southeast 536 617 35,000  Level FlightAware Transoceanic
Tue 12:12:00 PM 25.4004 -166.0708 115° Southeast 536 617 35,000  Level FlightAware Transoceanic
Tue 12:13:00 PM 25.3368 -165.9218 115° Southeast 536 617 35,000  Level FlightAware Transoceanic
Tue 12:14:00 PM 25.2730 -165.7729 115° Southeast 536 617 35,000  Level FlightAware Transoceanic
Tue 12:15:00 PM 25.2091 -165.6243 115° Southeast 536 617 35,000  Level FlightAware Transoceanic
Tue 12:16:00 PM 25.1451 -165.4758 116° Southeast 536 617 35,000  Level FlightAware Transoceanic
Tue 12:17:00 PM 25.0809 -165.3274 116° Southeast 536 617 35,000  Level FlightAware Transoceanic
Tue 12:18:00 PM 25.0165 -165.1792 116° Southeast 536 617 35,000  Level FlightAware Transoceanic
Tue 12:19:00 PM 24.9520 -165.0312 116° Southeast 536 617 35,000  Level FlightAware Transoceanic
Tue 12:20:00 PM 24.8873 -164.8833 116° Southeast 536 617 35,000  Level FlightAware Transoceanic
Tue 12:21:00 PM 24.8225 -164.7355 116° Southeast 536 617 35,000  Level FlightAware Transoceanic
Tue 12:22:00 PM 24.7576 -164.5880 116° Southeast 536 617 35,000  Level FlightAware Transoceanic
Tue 12:23:00 PM 24.6925 -164.4405 116° Southeast 536 617 35,000  Level FlightAware Transoceanic
Tue 12:24:00 PM 24.6273 -164.2933 116° Southeast 536 617 35,000  Level FlightAware Transoceanic
Tue 12:25:00 PM 24.5619 -164.1462 116° Southeast 536 617 35,000  Level FlightAware Transoceanic
Tue 12:26:00 PM 24.4964 -163.9992 116° Southeast 536 617 35,000  Level FlightAware Transoceanic
Tue 12:27:00 PM 24.4307 -163.8524 116° Southeast 536 617 35,000  Level FlightAware Transoceanic
Tue 12:28:00 PM 24.3649 -163.7057 116° Southeast 536 617 35,000  Level FlightAware Transoceanic
Tue 12:29:00 PM 24.2990 -163.5592 116° Southeast 536 617 35,000  Level FlightAware Transoceanic
Tue 12:30:00 PM 24.2329 -163.4129 116° Southeast 536 617 35,000  Level FlightAware Transoceanic
Tue 12:31:00 PM 24.1667 -163.2667 112° Southeast 536 617 35,000  Level FlightAware Transoceanic
Tue 12:32:00 PM 24.1146 -163.1258 112° Southeast 536 617 35,000  Level FlightAware Transoceanic
Tue 12:32:46 PM 24.1167 -163.1333 112° Southeast 520 598 35,000  Level Honolulu Center
Tue 12:33:00 PM 24.0624 -162.9850 112° Southeast 536 617 35,000  Level FlightAware Transoceanic
Tue 12:33:46 PM 24.0500 -163.0000 119° Southeast 520 598 35,000  Level Honolulu Center
Tue 12:34:00 PM 24.0100 -162.8443 112° Southeast 536 617 35,000  Level FlightAware Transoceanic
Tue 12:34:46 PM 23.9833 -162.8500 116° Southeast 520 598 35,000  Level Honolulu Center
Tue 12:35:00 PM 23.9576 -162.7037 112° Southeast 536 617 35,000  Level FlightAware Transoceanic
Tue 12:35:46 PM 23.9000 -162.7333 128° Southeast 520 598 35,000  Level Honolulu Center
Tue 12:36:00 PM 23.9050 -162.5633 112° Southeast 536 617 35,000  Level FlightAware Transoceanic
Tue 12:36:46 PM 23.8333 -162.5833 116° Southeast 530 610 35,000  Level Honolulu Center
Tue 12:37:00 PM 23.8523 -162.4229 112° Southeast 536 617 35,000  Level FlightAware Transoceanic
Tue 12:37:46 PM 23.7667 -162.4500 119° Southeast 520 598 35,000  Level Honolulu Center
Tue 12:38:00 PM 23.7994 -162.2827 112° Southeast 536 617 35,000  Level FlightAware Transoceanic
Tue 12:38:46 PM 23.6833 -162.3167 124° Southeast 520 598 35,000  Level Honolulu Center
Tue 12:39:47 PM 23.6167 -162.1833 119° Southeast 510 587 35,000  Level Honolulu Center
Tue 12:40:47 PM 23.5500 -162.0500 119° Southeast 520 598 35,000  Level Honolulu Center
Tue 12:41:47 PM 23.4667 -161.9167 124° Southeast 510 587 35,000  Level Honolulu Center
Tue 12:42:47 PM 23.4000 -161.7833 119° Southeast 520 598 35,000  Level Honolulu Center
Tue 12:43:47 PM 23.3333 -161.6833 126° Southeast 510 587 35,000  Level Honolulu Center
Tue 12:44:47 PM 23.2500 -161.5167 119° Southeast 510 587 35,000  Level Honolulu Center
Tue 12:45:47 PM 23.1667 -161.4000 128° Southeast 510 587 35,000  Level Honolulu Center
Tue 12:46:47 PM 23.1000 -161.2667 119° Southeast 510 587 35,000  Level Honolulu Center
Tue 12:47:47 PM 23.0167 -161.1333 124° Southeast 500 575 35,000  Level Honolulu Center
Tue 12:48:47 PM 22.9500 -161.0000 118° Southeast 510 587 35,000  Level Honolulu Center
Tue 12:49:48 PM 22.8667 -160.8667 124° Southeast 510 587 35,000  Level Honolulu Center
Tue 12:50:48 PM 22.8000 -160.7333 118° Southeast 510 587 35,000 -71 Level Honolulu Center
Tue 12:56:52 PM 22.3260 -160.0550 118° Southeast 511 588 34,500 -434 Descending FlightAware ADS-B
Tue 12:57:57 PM 22.2440 -159.9100 121° Southeast 500 575 31,900 -2,236 Descending FlightAware ADS-B
Tue 12:58:42 PM 22.1910 -159.8160 121° Southeast 485 558 30,400 -2,047 Descending FlightAware ADS-B
Tue 12:59:22 PM 22.1410 -159.7300 122° Southeast 476 548 29,000 -1,333 Descending FlightAware ADS-B
Tue 01:00:12 PM 22.0930 -159.6460 122° Southeast 476 548 28,400 -400 Descending FlightAware ADS-B
Tue 01:00:52 PM 22.0540 -159.5780 122° Southeast 476 548 28,400  Level FlightAware ADS-B
Tue 01:01:32 PM 22.0140 -159.5090 122° Southeast 476 548 28,400 -3,900 Level FlightAware ADS-B
Tue 01:02:12 PM 21.9600 -159.4100 120° Southeast 445 512 23,200 -4,440 Descending FlightAware ADS-B
Tue 01:03:12 PM 21.8930 -159.2930 122° Southeast 434 499 21,000 -2,147 Descending FlightAware ADS-B
Tue 01:03:47 PM 21.8600 -159.2330 121° Southeast 430 495 19,800 -2,188 Descending FlightAware ADS-B
Tue 01:04:37 PM 21.8050 -159.1350 121° Southeast 422 486 17,900 -1,560 Descending FlightAware ADS-B
Tue 01:05:27 PM 21.7610 -159.0560 121° Southeast 417 480 17,200 -467 Descending FlightAware ADS-B
Tue 01:06:07 PM 21.7270 -158.9960 121° Southeast 417 480 17,200  Level FlightAware ADS-B
Tue 01:06:57 PM 21.6850 -158.9200 121° Southeast 417 480 17,200  Level FlightAware ADS-B
Tue 01:07:37 PM 21.6510 -158.8600 121° Southeast 417 480 17,200  Level FlightAware ADS-B
Tue 01:08:17 PM 21.6170 -158.7990 121° Southeast 417 480 17,200  Level FlightAware ADS-B
Tue 01:08:57 PM 21.5830 -158.7390 121° Southeast 417 480 17,200 -4,774 Level FlightAware ADS-B
Tue 01:09:50 PM 21.5000 -158.5500 121° Southeast 300 345 9,800 -4,513 Descending Honolulu Center
Tue 01:10:50 PM 21.4500 -158.4833 129° Southeast 280 322 8,700 -1,200 Descending Honolulu Center
Tue 01:11:50 PM 21.4167 -158.4167 118° Southeast 270 311 7,400 -1,250 Descending Honolulu Center
Tue 01:12:50 PM 21.3833 -158.3500 118° Southeast 270 311 6,200 -1,250 Descending Honolulu Center
Tue 01:13:50 PM 21.3500 -158.2833 118° Southeast 260 299 4,900 -1,250 Descending Honolulu Center
Tue 01:14:50 PM 21.3167 -158.2167 118° Southeast 240 276 3,700 -942 Descending Honolulu Center
Tue 01:15:51 PM 21.3167 -158.1500 90° East 220 253 3,000 -446 Descending Honolulu Center
Tue 01:16:51 PM 21.3167 -158.0833 90° East 190 219 2,800 -600 Descending Honolulu Center
Tue 01:17:51 PM 21.3167 -158.0333 90° East 180 207 1,800 -1,000 Descending Honolulu Center

Login

Don't have an account? Register now (free) for customized features, flight alerts, and more!